Terminal Aerodrome Forecast
Issued by NWS

Home | Current Version | Previous Version | Text Only | Print | Product List | Glossary On
Versions: 1 2 3 4 5 6 7 8 9 10 11 12 13 14
170
FTUS42 KFFC 102325
TAFFTY
TAF
KFTY 102325Z 1100/1124 00000KT P6SM SKC
     FM111300 09004KT P6SM FEW250
     FM111400 09005KT P6SM SCT025
     FM111600 10006KT P6SM BKN025
     FM112000 11007KT P6SM BKN015=

USA.gov is the U.S. government's official web portal to all federal, state and local government web resources and services.